Time,TemperatureF,DewpointF,PressureIn,WindDirection,WindDirectionDegrees,WindSpeedMPH,WindSpeedGustMPH,Humidity,HourlyPrecipIn,Conditions,Clouds,dailyrainin,SoftwareType,DateUTC
2013-07-24 00:02:00,68.1,63.0,29.88,NE,40,6.0,10.0,83,0.00,,,0.00,weatherlink.com 1.10,2013-07-24 05:02:00,
2013-07-24 00:17:00,67.7,63.0,29.88,NE,49,7.0,10.0,84,0.00,,,0.00,weatherlink.com 1.10,2013-07-24 05:17:00,
2013-07-24 00:32:00,67.4,62.0,29.88,NE,42,4.0,10.0,84,0.00,,,0.00,weatherlink.com 1.10,2013-07-24 05:32:00,
2013-07-24 00:47:00,67.1,63.0,29.89,North,9,2.0,8.0,85,0.00,,,0.00,weatherlink.com 1.10,2013-07-24 05:47:00,
2013-07-24 01:02:00,66.7,62.0,29.90,NNE,33,3.0,8.0,85,0.00,,,0.00,weatherlink.com 1.10,2013-07-24 06:02:00,
2013-07-24 01:17:00,66.5,62.0,29.89,NNE,17,2.0,6.0,86,0.00,,,0.00,weatherlink.com 1.10,2013-07-24 06:17:00,
2013-07-24 01:32:00,66.2,62.0,29.89,NE,38,3.0,9.0,86,0.00,,,0.00,weatherlink.com 1.10,2013-07-24 06:32:00,
2013-07-24 01:47:00,65.9,62.0,29.89,NE,34,2.0,6.0,87,0.00,,,0.00,weatherlink.com 1.10,2013-07-24 06:47:00,
2013-07-24 02:02:00,65.7,62.0,29.89,NE,49,5.0,8.0,88,0.00,,,0.00,weatherlink.com 1.10,2013-07-24 07:02:00,
2013-07-24 02:17:00,65.4,62.0,29.88,NNE,30,1.0,8.0,88,0.00,,,0.00,weatherlink.com 1.10,2013-07-24 07:17:00,
2013-07-24 02:32:00,65.2,62.0,29.89,NE,49,1.0,5.0,89,0.00,,,0.00,weatherlink.com 1.10,2013-07-24 07:32:00,
2013-07-24 02:47:00,65.3,62.0,29.90,North,9,1.0,6.0,89,0.00,,,0.00,weatherlink.com 1.10,2013-07-24 07:47:00,
2013-07-24 03:02:00,65.5,62.0,29.90,NNE,27,3.0,6.0,88,0.00,,,0.00,weatherlink.com 1.10,2013-07-24 08:02:00,
2013-07-24 03:17:00,65.7,62.0,29.89,NE,36,3.0,6.0,87,0.00,,,0.00,weatherlink.com 1.10,2013-07-24 08:17:00,
2013-07-24 03:32:00,65.4,62.0,29.89,NNE,17,3.0,6.0,88,0.00,,,0.00,weatherlink.com 1.10,2013-07-24 08:32:00,
2013-07-24 03:47:00,65.3,62.0,29.89,NNE,24,2.0,6.0,88,0.00,,,0.00,weatherlink.com 1.10,2013-07-24 08:47:00,
2013-07-24 04:02:00,65.6,62.0,29.89,NNE,13,6.0,7.0,87,0.00,,,0.00,weatherlink.com 1.10,2013-07-24 09:02:00,
2013-07-24 04:17:00,65.8,62.0,29.89,NE,36,6.0,8.0,86,0.00,,,0.00,weatherlink.com 1.10,2013-07-24 09:17:00,
2013-07-24 04:32:00,65.5,61.0,29.90,NE,42,4.0,7.0,86,0.00,,,0.00,weatherlink.com 1.10,2013-07-24 09:32:00,
2013-07-24 04:47:00,65.2,61.0,29.90,NE,39,3.0,7.0,87,0.00,,,0.00,weatherlink.com 1.10,2013-07-24 09:47:00,
2013-07-24 05:02:00,64.7,61.0,29.91,North,5,1.0,6.0,87,0.00,,,0.00,weatherlink.com 1.10,2013-07-24 10:02:00,
2013-07-24 05:17:00,64.2,61.0,29.91,NNE,23,2.0,5.0,88,0.00,,,0.00,weatherlink.com 1.10,2013-07-24 10:17:00,
2013-07-24 05:32:00,63.8,61.0,29.90,North,5,3.0,4.0,89,0.00,,,0.00,weatherlink.com 1.10,2013-07-24 10:32:00,
2013-07-24 05:47:00,63.4,60.0,29.91,North,11,1.0,4.0,89,0.00,,,0.00,weatherlink.com 1.10,2013-07-24 10:47:00,
2013-07-24 06:02:00,63.1,60.0,29.91,NNE,24,3.0,4.0,90,0.00,,,0.00,weatherlink.com 1.10,2013-07-24 11:02:00,
2013-07-24 06:18:00,63.1,60.0,29.91,NE,48,3.0,8.0,90,0.00,,,0.00,weatherlink.com 1.10,2013-07-24 11:18:00,
2013-07-24 06:33:00,63.2,60.0,29.92,NE,55,4.0,8.0,90,0.00,,,0.00,weatherlink.com 1.10,2013-07-24 11:33:00,
2013-07-24 06:48:00,63.7,61.0,29.92,NE,38,4.0,7.0,89,0.00,,,0.00,weatherlink.com 1.10,2013-07-24 11:48:00,
2013-07-24 07:03:00,64.5,61.0,29.93,NE,47,3.0,9.0,88,0.00,,,0.00,weatherlink.com 1.10,2013-07-24 12:03:00,
2013-07-24 07:18:00,64.7,61.0,29.93,ENE,57,3.0,9.0,88,0.00,,,0.00,weatherlink.com 1.10,2013-07-24 12:18:00,
2013-07-24 07:33:00,65.4,61.0,29.94,ENE,61,5.0,10.0,86,0.00,,,0.00,weatherlink.com 1.10,2013-07-24 12:33:00,
2013-07-24 07:48:00,66.0,61.0,29.94,ENE,57,11.0,11.0,85,0.00,,,0.00,weatherlink.com 1.10,2013-07-24 12:48:00,
2013-07-24 08:03:00,66.3,61.0,29.95,ENE,63,10.0,12.0,82,0.00,,,0.00,weatherlink.com 1.10,2013-07-24 13:03:00,
2013-07-24 08:18:00,66.9,61.0,29.95,NE,40,4.0,11.0,81,0.00,,,0.00,weatherlink.com 1.10,2013-07-24 13:18:00,
2013-07-24 08:33:00,67.6,60.0,29.95,ENE,58,7.0,13.0,77,0.00,,,0.00,weatherlink.com 1.10,2013-07-24 13:33:00,
2013-07-24 08:48:00,67.9,60.0,29.96,NE,55,4.0,12.0,76,0.00,,,0.00,weatherlink.com 1.10,2013-07-24 13:48:00,
2013-07-24 09:03:00,68.6,60.0,29.96,NE,47,5.0,13.0,73,0.00,,,0.00,weatherlink.com 1.10,2013-07-24 14:03:00,
2013-07-24 09:18:00,69.3,60.0,29.96,NNE,22,10.0,11.0,72,0.00,,,0.00,weatherlink.com 1.10,2013-07-24 14:18:00,
2013-07-24 09:33:00,69.4,59.0,29.96,ENE,65,8.0,12.0,69,0.00,,,0.00,weatherlink.com 1.10,2013-07-24 14:33:00,
2013-07-24 09:48:00,70.4,60.0,29.96,NE,47,6.0,10.0,69,0.00,,,0.00,weatherlink.com 1.10,2013-07-24 14:48:00,
2013-07-24 10:03:00,71.0,59.0,29.96,East,101,7.0,9.0,65,0.00,,,0.00,weatherlink.com 1.10,2013-07-24 15:03:00,
2013-07-24 10:19:00,72.0,59.0,29.96,ESE,111,7.0,13.0,64,0.00,,,0.00,weatherlink.com 1.10,2013-07-24 15:19:00,
2013-07-24 10:34:00,72.4,59.0,29.97,ESE,123,3.0,10.0,64,0.00,,,0.00,weatherlink.com 1.10,2013-07-24 15:34:00,
2013-07-24 10:49:00,72.5,60.0,29.97,NE,52,6.0,9.0,64,0.00,,,0.00,weatherlink.com 1.10,2013-07-24 15:49:00,
2013-07-24 11:04:00,73.5,61.0,29.97,SE,130,4.0,9.0,64,0.00,,,0.00,weatherlink.com 1.10,2013-07-24 16:04:00,
2013-07-24 11:19:00,74.4,62.0,29.98,NNW,344,7.0,9.0,65,0.00,,,0.00,weatherlink.com 1.10,2013-07-24 16:19:00,
2013-07-24 11:34:00,74.9,61.0,29.98,NE,38,6.0,9.0,62,0.00,,,0.00,weatherlink.com 1.10,2013-07-24 16:34:00,
2013-07-24 11:49:00,75.7,61.0,29.98,ENE,61,9.0,9.0,60,0.00,,,0.00,weatherlink.com 1.10,2013-07-24 16:49:00,
2013-07-24 12:04:00,75.9,62.0,29.98,NE,46,1.0,8.0,62,0.00,,,0.00,weatherlink.com 1.10,2013-07-24 17:04:00,
2013-07-24 12:19:00,76.1,60.0,29.98,ENE,59,7.0,11.0,58,0.00,,,0.00,weatherlink.com 1.10,2013-07-24 17:19:00,
2013-07-24 12:34:00,76.0,62.0,29.98,NE,34,4.0,8.0,63,0.00,,,0.00,weatherlink.com 1.10,2013-07-24 17:34:00,
2013-07-24 12:49:00,76.9,63.0,29.99,NNE,24,4.0,9.0,62,0.00,,,0.00,weatherlink.com 1.10,2013-07-24 17:49:00,
2013-07-24 13:04:00,77.3,61.0,29.98,NE,53,6.0,10.0,58,0.00,,,0.00,weatherlink.com 1.10,2013-07-24 18:04:00,
2013-07-24 13:19:00,78.0,64.0,29.98,NW,315,4.0,9.0,63,0.00,,,0.00,weatherlink.com 1.10,2013-07-24 18:19:00,
2013-07-24 13:34:00,78.6,63.0,29.98,NNE,16,2.0,12.0,60,0.00,,,0.00,weatherlink.com 1.10,2013-07-24 18:34:00,
2013-07-24 13:49:00,77.7,62.0,29.98,NNE,21,4.0,12.0,59,0.00,,,0.00,weatherlink.com 1.10,2013-07-24 18:49:00,
2013-07-24 14:04:00,78.4,62.0,29.97,NNE,29,5.0,9.0,57,0.00,,,0.00,weatherlink.com 1.10,2013-07-24 19:04:00,
2013-07-24 14:19:00,79.5,62.0,29.97,ENE,57,10.0,10.0,56,0.00,,,0.00,weatherlink.com 1.10,2013-07-24 19:19:00,
2013-07-24 14:34:00,80.0,60.0,29.97,ENE,66,10.0,11.0,51,0.00,,,0.00,weatherlink.com 1.10,2013-07-24 19:34:00,
2013-07-24 14:49:00,79.8,61.0,29.97,North,355,5.0,11.0,53,0.00,,,0.00,weatherlink.com 1.10,2013-07-24 19:49:00,
2013-07-24 15:04:00,80.6,61.0,29.97,ENE,71,8.0,12.0,52,0.00,,,0.00,weatherlink.com 1.10,2013-07-24 20:04:00,
2013-07-24 15:19:00,80.3,62.0,29.96,North,5,2.0,11.0,54,0.00,,,0.00,weatherlink.com 1.10,2013-07-24 20:19:00,
2013-07-24 15:34:00,80.3,60.0,29.97,ENE,65,3.0,13.0,51,0.00,,,0.00,weatherlink.com 1.10,2013-07-24 20:34:00,
2013-07-24 15:49:00,80.6,60.0,29.97,NNW,346,4.0,11.0,50,0.00,,,0.00,weatherlink.com 1.10,2013-07-24 20:49:00,
2013-07-24 16:04:00,80.2,59.0,29.97,NNW,341,1.0,10.0,49,0.00,,,0.00,weatherlink.com 1.10,2013-07-24 21:04:00,
2013-07-24 16:19:00,80.2,60.0,29.97,NNE,13,13.0,15.0,50,0.00,,,0.00,weatherlink.com 1.10,2013-07-24 21:19:00,
2013-07-24 16:34:00,80.0,60.0,29.97,North,350,10.0,12.0,51,0.00,,,0.00,weatherlink.com 1.10,2013-07-24 21:34:00,
2013-07-24 16:49:00,80.4,61.0,29.97,NNW,340,6.0,8.0,51,0.00,,,0.00,weatherlink.com 1.10,2013-07-24 21:49:00,
2013-07-24 17:04:00,78.7,60.0,29.97,NE,51,4.0,15.0,52,0.00,,,0.00,weatherlink.com 1.10,2013-07-24 22:04:00,
2013-07-24 17:19:00,78.7,60.0,29.97,NE,42,6.0,13.0,52,0.00,,,0.00,weatherlink.com 1.10,2013-07-24 22:19:00,
2013-07-24 17:34:00,78.9,58.0,29.97,NE,42,5.0,8.0,49,0.00,,,0.00,weatherlink.com 1.10,2013-07-24 22:34:00,
2013-07-24 17:50:00,79.0,59.0,29.97,NE,35,6.0,9.0,51,0.00,,,0.00,weatherlink.com 1.10,2013-07-24 22:50:00,
2013-07-24 18:05:00,78.5,60.0,29.97,NNW,343,4.0,8.0,53,0.00,,,0.00,weatherlink.com 1.10,2013-07-24 23:05:00,
2013-07-24 18:20:00,77.9,59.0,29.97,NE,38,5.0,9.0,53,0.00,,,0.00,weatherlink.com 1.10,2013-07-24 23:20:00,
2013-07-24 18:35:00,77.3,60.0,29.97,NNE,16,6.0,9.0,55,0.00,,,0.00,weatherlink.com 1.10,2013-07-24 23:35:00,
2013-07-24 18:50:00,76.7,60.0,29.97,NNE,29,5.0,9.0,56,0.00,,,0.00,weatherlink.com 1.10,2013-07-24 23:50:00,
2013-07-24 19:05:00,76.2,60.0,29.97,NE,38,2.0,6.0,57,0.00,,,0.00,weatherlink.com 1.10,2013-07-25 00:05:00,
2013-07-24 19:20:00,75.7,60.0,29.97,NNE,32,3.0,7.0,58,0.00,,,0.00,weatherlink.com 1.10,2013-07-25 00:20:00,
2013-07-24 19:35:00,75.2,60.0,29.97,NE,42,3.0,6.0,59,0.00,,,0.00,weatherlink.com 1.10,2013-07-25 00:35:00,
2013-07-24 19:50:00,74.6,60.0,29.97,NE,40,2.0,3.0,61,0.00,,,0.00,weatherlink.com 1.10,2013-07-25 00:50:00,
2013-07-24 20:20:00,72.8,61.0,29.97,NE,38,2.0,3.0,66,0.00,,,0.00,weatherlink.com 1.10,2013-07-25 01:20:00,
2013-07-24 20:35:00,71.9,61.0,29.97,NE,38,2.0,3.0,68,0.00,,,0.00,weatherlink.com 1.10,2013-07-25 01:35:00,
2013-07-24 20:50:00,71.0,60.0,29.97,NE,38,0.0,2.0,69,0.00,,,0.00,weatherlink.com 1.10,2013-07-25 01:50:00,
2013-07-24 21:05:00,70.2,60.0,29.98,NE,38,1.0,2.0,71,0.00,,,0.00,weatherlink.com 1.10,2013-07-25 02:05:00,
2013-07-24 21:20:00,69.4,60.0,29.98,NE,38,0.0,1.0,73,0.00,,,0.00,weatherlink.com 1.10,2013-07-25 02:20:00,
2013-07-24 21:35:00,68.6,60.0,29.98,NE,38,0.0,3.0,74,0.00,,,0.00,weatherlink.com 1.10,2013-07-25 02:35:00,
2013-07-24 21:50:00,68.0,60.0,29.99,NNE,25,0.0,4.0,75,0.00,,,0.00,weatherlink.com 1.10,2013-07-25 02:50:00,
2013-07-24 22:20:00,66.9,59.0,29.99,NNE,25,0.0,0.0,77,0.00,,,0.00,weatherlink.com 1.10,2013-07-25 03:20:00,
2013-07-24 22:35:00,66.4,60.0,29.99,NNE,25,0.0,0.0,79,0.00,,,0.00,weatherlink.com 1.10,2013-07-25 03:35:00,
2013-07-24 22:50:00,65.9,59.0,29.99,NNE,25,0.0,1.0,79,0.00,,,0.00,weatherlink.com 1.10,2013-07-25 03:50:00,
2013-07-24 23:05:00,65.6,60.0,30.00,NNE,25,0.0,0.0,81,0.00,,,0.00,weatherlink.com 1.10,2013-07-25 04:05:00,
2013-07-24 23:20:00,65.2,60.0,30.00,NNE,25,0.0,0.0,82,0.00,,,0.00,weatherlink.com 1.10,2013-07-25 04:20:00,
2013-07-24 23:35:00,64.7,59.0,30.00,NNE,25,0.0,0.0,82,0.00,,,0.00,weatherlink.com 1.10,2013-07-25 04:35:00,
2013-07-24 23:50:00,64.1,59.0,30.01,NNE,25,0.0,0.0,84,0.00,,,0.00,weatherlink.com 1.10,2013-07-25 04:50:00,